sensor_id;sensor_type;location;lat;lon;timestamp;P1;durP1;ratioP1;P2;durP2;ratioP2
7517;SDS011;3800;48.922;9.444;2024-01-30T00:01:47;16.57;;;12.20;;
7517;SDS011;3800;48.922;9.444;2024-01-30T00:04:15;14.33;;;11.23;;
7517;SDS011;3800;48.922;9.444;2024-01-30T00:06:43;16.50;;;12.53;;
7517;SDS011;3800;48.922;9.444;2024-01-30T00:09:12;16.17;;;12.13;;
7517;SDS011;3800;48.922;9.444;2024-01-30T00:11:41;15.00;;;11.97;;
7517;SDS011;3800;48.922;9.444;2024-01-30T00:14:10;15.10;;;11.07;;
7517;SDS011;3800;48.922;9.444;2024-01-30T00:16:39;14.80;;;11.37;;
7517;SDS011;3800;48.922;9.444;2024-01-30T00:19:07;13.60;;;11.37;;
7517;SDS011;3800;48.922;9.444;2024-01-30T00:21:35;15.63;;;11.53;;
7517;SDS011;3800;48.922;9.444;2024-01-30T00:24:04;17.10;;;13.20;;
7517;SDS011;3800;48.922;9.444;2024-01-30T00:26:33;15.27;;;12.67;;
7517;SDS011;3800;48.922;9.444;2024-01-30T00:29:01;16.33;;;12.57;;
7517;SDS011;3800;48.922;9.444;2024-01-30T00:31:29;15.10;;;12.43;;
7517;SDS011;3800;48.922;9.444;2024-01-30T00:33:57;14.50;;;11.93;;
7517;SDS011;3800;48.922;9.444;2024-01-30T00:36:26;19.10;;;12.83;;
7517;SDS011;3800;48.922;9.444;2024-01-30T00:38:54;14.53;;;11.70;;
7517;SDS011;3800;48.922;9.444;2024-01-30T00:41:22;18.43;;;12.87;;
7517;SDS011;3800;48.922;9.444;2024-01-30T00:43:50;17.10;;;12.70;;
7517;SDS011;3800;48.922;9.444;2024-01-30T00:46:19;15.20;;;12.00;;
7517;SDS011;3800;48.922;9.444;2024-01-30T00:48:47;15.20;;;12.40;;
7517;SDS011;3800;48.922;9.444;2024-01-30T00:51:15;15.07;;;12.57;;
7517;SDS011;3800;48.922;9.444;2024-01-30T00:53:43;15.47;;;12.87;;
7517;SDS011;3800;48.922;9.444;2024-01-30T00:56:13;16.70;;;13.10;;
7517;SDS011;3800;48.922;9.444;2024-01-30T00:58:42;15.17;;;12.30;;
7517;SDS011;3800;48.922;9.444;2024-01-30T01:01:12;15.27;;;12.43;;
7517;SDS011;3800;48.922;9.444;2024-01-30T01:03:40;15.23;;;12.10;;
7517;SDS011;3800;48.922;9.444;2024-01-30T01:06:08;12.40;;;10.60;;
7517;SDS011;3800;48.922;9.444;2024-01-30T01:08:37;14.00;;;11.00;;
7517;SDS011;3800;48.922;9.444;2024-01-30T01:11:06;15.37;;;11.43;;
7517;SDS011;3800;48.922;9.444;2024-01-30T01:13:35;14.37;;;11.40;;
7517;SDS011;3800;48.922;9.444;2024-01-30T01:16:03;11.93;;;10.30;;
7517;SDS011;3800;48.922;9.444;2024-01-30T01:18:33;17.30;;;11.50;;
7517;SDS011;3800;48.922;9.444;2024-01-30T01:21:01;13.87;;;11.10;;
7517;SDS011;3800;48.922;9.444;2024-01-30T01:23:29;15.50;;;11.33;;
7517;SDS011;3800;48.922;9.444;2024-01-30T01:25:58;13.50;;;11.80;;
7517;SDS011;3800;48.922;9.444;2024-01-30T01:28:27;12.80;;;10.87;;
7517;SDS011;3800;48.922;9.444;2024-01-30T01:30:55;14.60;;;11.73;;
7517;SDS011;3800;48.922;9.444;2024-01-30T01:33:24;12.43;;;10.80;;
7517;SDS011;3800;48.922;9.444;2024-01-30T01:35:53;12.30;;;10.90;;
7517;SDS011;3800;48.922;9.444;2024-01-30T01:38:21;13.47;;;10.50;;
7517;SDS011;3800;48.922;9.444;2024-01-30T01:40:49;13.47;;;10.93;;
7517;SDS011;3800;48.922;9.444;2024-01-30T01:43:18;16.33;;;11.97;;
7517;SDS011;3800;48.922;9.444;2024-01-30T01:45:48;15.23;;;11.50;;
7517;SDS011;3800;48.922;9.444;2024-01-30T01:48:16;13.70;;;11.73;;
7517;SDS011;3800;48.922;9.444;2024-01-30T01:50:45;16.23;;;12.17;;
7517;SDS011;3800;48.922;9.444;2024-01-30T01:53:13;13.83;;;11.47;;
7517;SDS011;3800;48.922;9.444;2024-01-30T01:55:41;16.07;;;11.67;;
7517;SDS011;3800;48.922;9.444;2024-01-30T01:58:10;16.33;;;12.33;;
7517;SDS011;3800;48.922;9.444;2024-01-30T02:00:38;14.60;;;11.80;;
7517;SDS011;3800;48.922;9.444;2024-01-30T02:03:06;14.93;;;11.83;;
7517;SDS011;3800;48.922;9.444;2024-01-30T02:05:36;15.43;;;11.73;;
7517;SDS011;3800;48.922;9.444;2024-01-30T02:08:03;15.37;;;12.23;;
7517;SDS011;3800;48.922;9.444;2024-01-30T02:10:32;13.33;;;11.80;;
7517;SDS011;3800;48.922;9.444;2024-01-30T02:13:01;14.27;;;11.50;;
7517;SDS011;3800;48.922;9.444;2024-01-30T02:15:29;14.57;;;11.87;;
7517;SDS011;3800;48.922;9.444;2024-01-30T02:17:57;14.90;;;12.10;;
7517;SDS011;3800;48.922;9.444;2024-01-30T02:20:25;15.57;;;12.10;;
7517;SDS011;3800;48.922;9.444;2024-01-30T02:22:55;13.63;;;11.10;;
7517;SDS011;3800;48.922;9.444;2024-01-30T02:27:59;12.97;;;11.00;;
7517;SDS011;3800;48.922;9.444;2024-01-30T02:30:27;14.27;;;11.23;;
7517;SDS011;3800;48.922;9.444;2024-01-30T02:32:56;15.13;;;11.73;;
7517;SDS011;3800;48.922;9.444;2024-01-30T02:35:25;16.00;;;11.97;;
7517;SDS011;3800;48.922;9.444;2024-01-30T02:37:53;13.60;;;11.17;;
7517;SDS011;3800;48.922;9.444;2024-01-30T02:40:21;15.00;;;12.10;;
7517;SDS011;3800;48.922;9.444;2024-01-30T02:42:49;13.63;;;11.03;;
7517;SDS011;3800;48.922;9.444;2024-01-30T02:45:18;13.77;;;11.67;;
7517;SDS011;3800;48.922;9.444;2024-01-30T02:47:47;13.17;;;11.37;;
7517;SDS011;3800;48.922;9.444;2024-01-30T02:50:15;12.47;;;10.47;;
7517;SDS011;3800;48.922;9.444;2024-01-30T02:52:43;12.93;;;11.53;;
7517;SDS011;3800;48.922;9.444;2024-01-30T02:55:12;12.77;;;10.90;;
7517;SDS011;3800;48.922;9.444;2024-01-30T02:57:40;12.07;;;10.00;;
7517;SDS011;3800;48.922;9.444;2024-01-30T03:00:09;12.47;;;10.27;;
7517;SDS011;3800;48.922;9.444;2024-01-30T03:02:38;13.80;;;10.90;;
7517;SDS011;3800;48.922;9.444;2024-01-30T03:05:08;13.50;;;9.73;;
7517;SDS011;3800;48.922;9.444;2024-01-30T03:07:34;14.43;;;11.37;;
7517;SDS011;3800;48.922;9.444;2024-01-30T03:10:04;11.67;;;9.87;;
7517;SDS011;3800;48.922;9.444;2024-01-30T03:12:34;12.87;;;10.03;;
7517;SDS011;3800;48.922;9.444;2024-01-30T03:15:02;12.53;;;9.90;;
7517;SDS011;3800;48.922;9.444;2024-01-30T03:17:30;10.33;;;9.13;;
7517;SDS011;3800;48.922;9.444;2024-01-30T03:19:58;13.03;;;10.03;;
7517;SDS011;3800;48.922;9.444;2024-01-30T03:22:27;13.30;;;10.17;;
7517;SDS011;3800;48.922;9.444;2024-01-30T03:24:55;13.00;;;10.43;;
7517;SDS011;3800;48.922;9.444;2024-01-30T03:27:23;13.03;;;10.23;;
7517;SDS011;3800;48.922;9.444;2024-01-30T03:29:52;14.03;;;10.73;;
7517;SDS011;3800;48.922;9.444;2024-01-30T03:32:20;12.63;;;10.50;;
7517;SDS011;3800;48.922;9.444;2024-01-30T03:34:48;15.30;;;12.50;;
7517;SDS011;3800;48.922;9.444;2024-01-30T03:37:16;13.47;;;11.43;;
7517;SDS011;3800;48.922;9.444;2024-01-30T03:39:45;14.17;;;11.57;;
7517;SDS011;3800;48.922;9.444;2024-01-30T03:42:13;14.13;;;11.27;;
7517;SDS011;3800;48.922;9.444;2024-01-30T03:44:42;14.17;;;10.67;;
7517;SDS011;3800;48.922;9.444;2024-01-30T03:47:10;13.27;;;11.20;;
7517;SDS011;3800;48.922;9.444;2024-01-30T03:49:38;13.30;;;10.33;;
7517;SDS011;3800;48.922;9.444;2024-01-30T03:52:07;11.93;;;9.87;;
7517;SDS011;3800;48.922;9.444;2024-01-30T03:54:36;11.73;;;9.70;;
7517;SDS011;3800;48.922;9.444;2024-01-30T03:57:04;12.50;;;10.27;;
7517;SDS011;3800;48.922;9.444;2024-01-30T03:59:32;12.10;;;10.07;;
7517;SDS011;3800;48.922;9.444;2024-01-30T04:02:00;11.80;;;10.10;;
7517;SDS011;3800;48.922;9.444;2024-01-30T04:04:29;12.80;;;9.83;;
7517;SDS011;3800;48.922;9.444;2024-01-30T04:06:57;13.47;;;10.87;;
7517;SDS011;3800;48.922;9.444;2024-01-30T04:09:25;12.53;;;10.33;;
7517;SDS011;3800;48.922;9.444;2024-01-30T04:11:54;12.53;;;10.83;;
7517;SDS011;3800;48.922;9.444;2024-01-30T04:14:22;11.93;;;10.20;;
7517;SDS011;3800;48.922;9.444;2024-01-30T04:16:50;12.17;;;10.83;;
7517;SDS011;3800;48.922;9.444;2024-01-30T04:19:19;12.93;;;10.47;;
7517;SDS011;3800;48.922;9.444;2024-01-30T04:21:47;13.57;;;9.83;;
7517;SDS011;3800;48.922;9.444;2024-01-30T04:24:16;13.30;;;10.17;;
7517;SDS011;3800;48.922;9.444;2024-01-30T04:26:44;12.87;;;10.40;;
7517;SDS011;3800;48.922;9.444;2024-01-30T04:29:13;12.03;;;10.67;;
7517;SDS011;3800;48.922;9.444;2024-01-30T04:31:41;11.83;;;10.40;;
7517;SDS011;3800;48.922;9.444;2024-01-30T04:34:10;12.77;;;10.80;;
7517;SDS011;3800;48.922;9.444;2024-01-30T04:36:38;11.33;;;10.13;;
7517;SDS011;3800;48.922;9.444;2024-01-30T04:39:06;10.63;;;9.50;;
7517;SDS011;3800;48.922;9.444;2024-01-30T04:41:35;10.40;;;8.70;;
7517;SDS011;3800;48.922;9.444;2024-01-30T04:44:03;12.27;;;9.13;;
7517;SDS011;3800;48.922;9.444;2024-01-30T04:46:31;12.43;;;9.80;;
7517;SDS011;3800;48.922;9.444;2024-01-30T04:48:59;12.03;;;10.10;;
7517;SDS011;3800;48.922;9.444;2024-01-30T04:51:28;12.90;;;10.93;;
7517;SDS011;3800;48.922;9.444;2024-01-30T04:53:56;13.63;;;11.30;;
7517;SDS011;3800;48.922;9.444;2024-01-30T04:56:25;12.13;;;10.27;;
7517;SDS011;3800;48.922;9.444;2024-01-30T04:58:54;12.93;;;10.80;;
7517;SDS011;3800;48.922;9.444;2024-01-30T05:01:23;11.57;;;9.37;;
7517;SDS011;3800;48.922;9.444;2024-01-30T05:03:52;13.80;;;10.23;;
7517;SDS011;3800;48.922;9.444;2024-01-30T05:06:23;11.83;;;9.87;;
7517;SDS011;3800;48.922;9.444;2024-01-30T05:08:53;13.10;;;10.43;;
7517;SDS011;3800;48.922;9.444;2024-01-30T05:11:21;11.47;;;9.70;;
7517;SDS011;3800;48.922;9.444;2024-01-30T05:13:49;11.60;;;9.53;;
7517;SDS011;3800;48.922;9.444;2024-01-30T05:16:18;11.10;;;9.70;;
7517;SDS011;3800;48.922;9.444;2024-01-30T05:18:46;11.03;;;9.50;;
7517;SDS011;3800;48.922;9.444;2024-01-30T05:21:15;12.67;;;9.60;;
7517;SDS011;3800;48.922;9.444;2024-01-30T05:23:43;12.87;;;10.27;;
7517;SDS011;3800;48.922;9.444;2024-01-30T05:26:11;20.20;;;15.57;;
7517;SDS011;3800;48.922;9.444;2024-01-30T05:28:39;20.00;;;15.07;;
7517;SDS011;3800;48.922;9.444;2024-01-30T05:31:08;17.03;;;13.00;;
7517;SDS011;3800;48.922;9.444;2024-01-30T05:33:36;17.70;;;12.67;;
7517;SDS011;3800;48.922;9.444;2024-01-30T05:36:04;14.33;;;11.77;;
7517;SDS011;3800;48.922;9.444;2024-01-30T05:38:33;13.37;;;10.90;;
7517;SDS011;3800;48.922;9.444;2024-01-30T05:41:02;12.77;;;11.17;;
7517;SDS011;3800;48.922;9.444;2024-01-30T05:43:30;13.83;;;10.40;;
7517;SDS011;3800;48.922;9.444;2024-01-30T05:45:58;12.47;;;10.13;;
7517;SDS011;3800;48.922;9.444;2024-01-30T05:48:26;13.10;;;10.23;;
7517;SDS011;3800;48.922;9.444;2024-01-30T05:50:55;11.87;;;9.80;;
7517;SDS011;3800;48.922;9.444;2024-01-30T05:53:24;17.07;;;12.33;;
7517;SDS011;3800;48.922;9.444;2024-01-30T05:55:52;12.87;;;10.87;;
7517;SDS011;3800;48.922;9.444;2024-01-30T05:58:20;13.17;;;10.00;;
7517;SDS011;3800;48.922;9.444;2024-01-30T06:00:49;13.90;;;11.03;;
7517;SDS011;3800;48.922;9.444;2024-01-30T06:03:17;11.73;;;10.23;;
7517;SDS011;3800;48.922;9.444;2024-01-30T06:05:45;14.83;;;10.07;;
7517;SDS011;3800;48.922;9.444;2024-01-30T06:08:14;13.60;;;9.87;;
7517;SDS011;3800;48.922;9.444;2024-01-30T06:10:42;11.20;;;10.00;;
7517;SDS011;3800;48.922;9.444;2024-01-30T06:13:11;14.40;;;10.83;;
7517;SDS011;3800;48.922;9.444;2024-01-30T06:15:39;11.23;;;9.70;;
7517;SDS011;3800;48.922;9.444;2024-01-30T06:18:07;12.07;;;10.40;;
7517;SDS011;3800;48.922;9.444;2024-01-30T06:20:36;10.90;;;9.77;;
7517;SDS011;3800;48.922;9.444;2024-01-30T06:23:04;11.90;;;9.70;;
7517;SDS011;3800;48.922;9.444;2024-01-30T06:25:32;11.27;;;9.40;;
7517;SDS011;3800;48.922;9.444;2024-01-30T06:28:00;12.67;;;9.40;;
7517;SDS011;3800;48.922;9.444;2024-01-30T06:30:29;11.23;;;9.03;;
7517;SDS011;3800;48.922;9.444;2024-01-30T06:32:57;11.13;;;9.90;;
7517;SDS011;3800;48.922;9.444;2024-01-30T06:35:26;12.87;;;10.07;;
7517;SDS011;3800;48.922;9.444;2024-01-30T06:37:54;12.03;;;9.23;;
7517;SDS011;3800;48.922;9.444;2024-01-30T06:40:23;12.50;;;9.63;;
7517;SDS011;3800;48.922;9.444;2024-01-30T06:42:51;14.53;;;9.33;;
7517;SDS011;3800;48.922;9.444;2024-01-30T06:45:19;13.23;;;9.70;;
7517;SDS011;3800;48.922;9.444;2024-01-30T06:47:47;12.63;;;9.80;;
7517;SDS011;3800;48.922;9.444;2024-01-30T06:50:16;11.63;;;9.40;;
7517;SDS011;3800;48.922;9.444;2024-01-30T06:52:44;12.73;;;10.53;;
7517;SDS011;3800;48.922;9.444;2024-01-30T06:55:12;12.17;;;10.20;;
7517;SDS011;3800;48.922;9.444;2024-01-30T06:57:41;13.03;;;8.90;;
7517;SDS011;3800;48.922;9.444;2024-01-30T07:00:09;12.87;;;9.30;;
7517;SDS011;3800;48.922;9.444;2024-01-30T07:02:39;11.90;;;10.07;;
7517;SDS011;3800;48.922;9.444;2024-01-30T07:05:07;12.83;;;10.33;;
7517;SDS011;3800;48.922;9.444;2024-01-30T07:07:35;12.87;;;9.97;;
7517;SDS011;3800;48.922;9.444;2024-01-30T07:10:04;12.90;;;10.03;;
7517;SDS011;3800;48.922;9.444;2024-01-30T07:12:34;12.20;;;10.50;;
7517;SDS011;3800;48.922;9.444;2024-01-30T07:15:03;11.03;;;9.90;;
7517;SDS011;3800;48.922;9.444;2024-01-30T07:17:31;11.93;;;10.50;;
7517;SDS011;3800;48.922;9.444;2024-01-30T07:20:00;12.57;;;9.87;;
7517;SDS011;3800;48.922;9.444;2024-01-30T07:22:28;14.80;;;9.93;;
7517;SDS011;3800;48.922;9.444;2024-01-30T07:24:57;11.63;;;9.77;;
7517;SDS011;3800;48.922;9.444;2024-01-30T07:27:25;10.77;;;9.53;;
7517;SDS011;3800;48.922;9.444;2024-01-30T07:29:54;14.67;;;9.90;;
7517;SDS011;3800;48.922;9.444;2024-01-30T07:32:22;11.63;;;9.53;;
7517;SDS011;3800;48.922;9.444;2024-01-30T07:34:51;13.20;;;9.90;;
7517;SDS011;3800;48.922;9.444;2024-01-30T07:37:20;12.40;;;10.13;;
7517;SDS011;3800;48.922;9.444;2024-01-30T07:39:48;13.00;;;10.40;;
7517;SDS011;3800;48.922;9.444;2024-01-30T07:42:16;14.00;;;10.70;;
7517;SDS011;3800;48.922;9.444;2024-01-30T07:44:44;11.60;;;9.60;;
7517;SDS011;3800;48.922;9.444;2024-01-30T07:47:13;12.63;;;9.80;;
7517;SDS011;3800;48.922;9.444;2024-01-30T07:49:41;11.70;;;9.63;;
7517;SDS011;3800;48.922;9.444;2024-01-30T07:52:09;11.50;;;9.77;;
7517;SDS011;3800;48.922;9.444;2024-01-30T07:54:37;11.67;;;9.97;;
7517;SDS011;3800;48.922;9.444;2024-01-30T07:57:06;11.23;;;9.33;;
7517;SDS011;3800;48.922;9.444;2024-01-30T07:59:35;11.70;;;10.17;;
7517;SDS011;3800;48.922;9.444;2024-01-30T08:02:03;12.03;;;10.00;;
7517;SDS011;3800;48.922;9.444;2024-01-30T08:04:32;15.83;;;11.27;;
7517;SDS011;3800;48.922;9.444;2024-01-30T08:07:00;17.40;;;11.13;;
7517;SDS011;3800;48.922;9.444;2024-01-30T08:09:28;11.93;;;10.37;;
7517;SDS011;3800;48.922;9.444;2024-01-30T08:11:58;12.50;;;10.57;;
7517;SDS011;3800;48.922;9.444;2024-01-30T08:14:26;14.73;;;10.77;;
7517;SDS011;3800;48.922;9.444;2024-01-30T08:16:54;11.77;;;9.97;;
7517;SDS011;3800;48.922;9.444;2024-01-30T08:19:22;12.67;;;9.93;;
7517;SDS011;3800;48.922;9.444;2024-01-30T08:21:51;12.90;;;10.33;;
7517;SDS011;3800;48.922;9.444;2024-01-30T08:24:19;12.70;;;10.87;;
7517;SDS011;3800;48.922;9.444;2024-01-30T08:26:48;14.00;;;11.40;;
7517;SDS011;3800;48.922;9.444;2024-01-30T08:29:16;11.77;;;10.43;;
7517;SDS011;3800;48.922;9.444;2024-01-30T08:31:44;11.73;;;10.50;;
7517;SDS011;3800;48.922;9.444;2024-01-30T08:34:14;12.63;;;10.43;;
7517;SDS011;3800;48.922;9.444;2024-01-30T08:36:42;12.30;;;9.47;;
7517;SDS011;3800;48.922;9.444;2024-01-30T08:39:11;10.93;;;9.27;;
7517;SDS011;3800;48.922;9.444;2024-01-30T08:41:39;11.27;;;10.07;;
7517;SDS011;3800;48.922;9.444;2024-01-30T08:44:07;15.07;;;10.13;;
7517;SDS011;3800;48.922;9.444;2024-01-30T08:46:35;11.93;;;9.43;;
7517;SDS011;3800;48.922;9.444;2024-01-30T08:49:04;10.90;;;9.17;;
7517;SDS011;3800;48.922;9.444;2024-01-30T08:51:32;12.00;;;9.97;;
7517;SDS011;3800;48.922;9.444;2024-01-30T08:54:00;12.33;;;10.70;;
7517;SDS011;3800;48.922;9.444;2024-01-30T08:56:28;13.07;;;10.10;;
7517;SDS011;3800;48.922;9.444;2024-01-30T08:58:57;13.70;;;10.23;;
7517;SDS011;3800;48.922;9.444;2024-01-30T09:01:25;16.43;;;9.57;;
7517;SDS011;3800;48.922;9.444;2024-01-30T09:03:53;12.07;;;8.97;;
7517;SDS011;3800;48.922;9.444;2024-01-30T09:06:21;10.90;;;9.00;;
7517;SDS011;3800;48.922;9.444;2024-01-30T09:08:50;11.43;;;8.80;;
7517;SDS011;3800;48.922;9.444;2024-01-30T09:11:18;9.57;;;8.57;;
7517;SDS011;3800;48.922;9.444;2024-01-30T09:13:46;9.90;;;8.93;;
7517;SDS011;3800;48.922;9.444;2024-01-30T09:16:15;9.77;;;8.77;;
7517;SDS011;3800;48.922;9.444;2024-01-30T09:18:44;12.30;;;9.73;;
7517;SDS011;3800;48.922;9.444;2024-01-30T09:21:13;9.87;;;8.87;;
7517;SDS011;3800;48.922;9.444;2024-01-30T09:23:41;10.47;;;8.63;;
7517;SDS011;3800;48.922;9.444;2024-01-30T09:26:09;9.80;;;8.80;;
7517;SDS011;3800;48.922;9.444;2024-01-30T09:28:38;11.93;;;9.17;;
7517;SDS011;3800;48.922;9.444;2024-01-30T09:31:10;10.43;;;8.90;;
7517;SDS011;3800;48.922;9.444;2024-01-30T09:33:38;12.70;;;9.73;;
7517;SDS011;3800;48.922;9.444;2024-01-30T09:36:08;11.03;;;9.30;;
7517;SDS011;3800;48.922;9.444;2024-01-30T09:38:37;10.97;;;9.10;;
7517;SDS011;3800;48.922;9.444;2024-01-30T09:41:06;11.37;;;8.80;;
7517;SDS011;3800;48.922;9.444;2024-01-30T09:43:34;10.23;;;8.67;;
7517;SDS011;3800;48.922;9.444;2024-01-30T09:46:02;10.03;;;8.20;;
7517;SDS011;3800;48.922;9.444;2024-01-30T09:48:31;10.80;;;8.60;;
7517;SDS011;3800;48.922;9.444;2024-01-30T09:51:00;13.07;;;9.17;;
7517;SDS011;3800;48.922;9.444;2024-01-30T09:53:28;10.23;;;8.87;;
7517;SDS011;3800;48.922;9.444;2024-01-30T09:55:58;9.53;;;8.63;;
7517;SDS011;3800;48.922;9.444;2024-01-30T09:58:26;12.33;;;9.50;;
7517;SDS011;3800;48.922;9.444;2024-01-30T10:00:54;11.20;;;9.13;;
7517;SDS011;3800;48.922;9.444;2024-01-30T10:03:23;11.43;;;9.63;;
7517;SDS011;3800;48.922;9.444;2024-01-30T10:05:52;10.63;;;9.10;;
7517;SDS011;3800;48.922;9.444;2024-01-30T10:08:21;10.33;;;9.23;;
7517;SDS011;3800;48.922;9.444;2024-01-30T10:13:15;11.73;;;9.50;;
7517;SDS011;3800;48.922;9.444;2024-01-30T10:15:43;10.70;;;9.60;;
7517;SDS011;3800;48.922;9.444;2024-01-30T10:18:11;10.10;;;9.10;;
7517;SDS011;3800;48.922;9.444;2024-01-30T10:20:40;10.80;;;9.73;;
7517;SDS011;3800;48.922;9.444;2024-01-30T10:23:08;11.83;;;9.50;;
7517;SDS011;3800;48.922;9.444;2024-01-30T10:25:37;10.80;;;9.70;;
7517;SDS011;3800;48.922;9.444;2024-01-30T10:28:06;11.10;;;9.60;;
7517;SDS011;3800;48.922;9.444;2024-01-30T10:30:34;11.17;;;9.63;;
7517;SDS011;3800;48.922;9.444;2024-01-30T10:33:03;12.77;;;9.70;;
7517;SDS011;3800;48.922;9.444;2024-01-30T10:35:32;11.90;;;9.97;;
7517;SDS011;3800;48.922;9.444;2024-01-30T10:38:01;11.33;;;9.83;;
7517;SDS011;3800;48.922;9.444;2024-01-30T10:40:29;11.90;;;9.87;;
7517;SDS011;3800;48.922;9.444;2024-01-30T10:42:58;10.30;;;9.20;;
7517;SDS011;3800;48.922;9.444;2024-01-30T10:45:26;10.53;;;9.23;;
7517;SDS011;3800;48.922;9.444;2024-01-30T10:47:54;11.37;;;9.83;;
7517;SDS011;3800;48.922;9.444;2024-01-30T10:50:24;11.37;;;9.33;;
7517;SDS011;3800;48.922;9.444;2024-01-30T10:52:53;10.10;;;9.10;;
7517;SDS011;3800;48.922;9.444;2024-01-30T10:55:21;12.47;;;10.33;;
7517;SDS011;3800;48.922;9.444;2024-01-30T10:57:49;10.20;;;9.10;;
7517;SDS011;3800;48.922;9.444;2024-01-30T11:00:17;12.17;;;9.87;;
7517;SDS011;3800;48.922;9.444;2024-01-30T11:02:46;15.70;;;9.57;;
7517;SDS011;3800;48.922;9.444;2024-01-30T11:05:14;12.63;;;9.60;;
7517;SDS011;3800;48.922;9.444;2024-01-30T11:07:42;13.73;;;9.67;;
7517;SDS011;3800;48.922;9.444;2024-01-30T11:10:11;14.57;;;10.63;;
7517;SDS011;3800;48.922;9.444;2024-01-30T11:12:39;14.93;;;9.60;;
7517;SDS011;3800;48.922;9.444;2024-01-30T11:15:08;11.10;;;9.50;;
7517;SDS011;3800;48.922;9.444;2024-01-30T11:17:42;11.57;;;9.23;;
7517;SDS011;3800;48.922;9.444;2024-01-30T11:20:14;9.63;;;8.63;;
7517;SDS011;3800;48.922;9.444;2024-01-30T11:22:44;10.50;;;9.40;;
7517;SDS011;3800;48.922;9.444;2024-01-30T11:25:14;8.60;;;7.80;;
7517;SDS011;3800;48.922;9.444;2024-01-30T11:27:43;11.63;;;8.50;;
7517;SDS011;3800;48.922;9.444;2024-01-30T11:35:28;10.27;;;9.27;;
7517;SDS011;3800;48.922;9.444;2024-01-30T11:37:57;9.60;;;8.53;;
7517;SDS011;3800;48.922;9.444;2024-01-30T11:40:26;9.53;;;8.00;;
7517;SDS011;3800;48.922;9.444;2024-01-30T11:42:55;8.67;;;7.57;;
7517;SDS011;3800;48.922;9.444;2024-01-30T11:45:23;8.73;;;7.57;;
7517;SDS011;3800;48.922;9.444;2024-01-30T11:47:52;8.20;;;7.40;;
7517;SDS011;3800;48.922;9.444;2024-01-30T11:50:20;8.33;;;7.43;;
7517;SDS011;3800;48.922;9.444;2024-01-30T11:52:48;8.77;;;7.87;;
7517;SDS011;3800;48.922;9.444;2024-01-30T11:55:17;9.10;;;8.27;;
7517;SDS011;3800;48.922;9.444;2024-01-30T11:57:45;8.23;;;7.40;;
7517;SDS011;3800;48.922;9.444;2024-01-30T12:00:14;8.60;;;7.40;;
7517;SDS011;3800;48.922;9.444;2024-01-30T12:02:49;9.87;;;7.63;;
7517;SDS011;3800;48.922;9.444;2024-01-30T12:05:18;9.13;;;7.27;;
7517;SDS011;3800;48.922;9.444;2024-01-30T12:07:46;8.37;;;6.80;;
7517;SDS011;3800;48.922;9.444;2024-01-30T12:10:14;7.40;;;6.70;;
7517;SDS011;3800;48.922;9.444;2024-01-30T12:12:43;7.23;;;6.53;;
7517;SDS011;3800;48.922;9.444;2024-01-30T12:15:14;6.97;;;6.17;;
7517;SDS011;3800;48.922;9.444;2024-01-30T12:17:42;7.87;;;5.70;;
7517;SDS011;3800;48.922;9.444;2024-01-30T12:20:10;10.20;;;6.10;;
7517;SDS011;3800;48.922;9.444;2024-01-30T12:22:39;7.20;;;5.87;;
7517;SDS011;3800;48.922;9.444;2024-01-30T12:25:11;7.80;;;6.50;;
7517;SDS011;3800;48.922;9.444;2024-01-30T12:27:41;7.00;;;5.60;;
7517;SDS011;3800;48.922;9.444;2024-01-30T12:30:11;9.20;;;6.07;;
7517;SDS011;3800;48.922;9.444;2024-01-30T12:32:41;8.03;;;5.90;;
7517;SDS011;3800;48.922;9.444;2024-01-30T12:35:13;8.70;;;6.33;;
7517;SDS011;3800;48.922;9.444;2024-01-30T12:37:43;6.93;;;6.10;;
7517;SDS011;3800;48.922;9.444;2024-01-30T12:40:12;6.90;;;6.20;;
7517;SDS011;3800;48.922;9.444;2024-01-30T12:42:41;7.97;;;6.40;;
7517;SDS011;3800;48.922;9.444;2024-01-30T12:45:09;8.10;;;6.90;;
7517;SDS011;3800;48.922;9.444;2024-01-30T12:47:37;8.10;;;7.30;;
7517;SDS011;3800;48.922;9.444;2024-01-30T12:50:06;7.70;;;6.90;;
7517;SDS011;3800;48.922;9.444;2024-01-30T12:52:35;7.70;;;6.90;;
7517;SDS011;3800;48.922;9.444;2024-01-30T12:55:02;7.20;;;6.50;;
7517;SDS011;3800;48.922;9.444;2024-01-30T12:57:31;9.10;;;7.03;;
7517;SDS011;3800;48.922;9.444;2024-01-30T12:59:59;12.67;;;6.67;;
7517;SDS011;3800;48.922;9.444;2024-01-30T13:02:28;7.47;;;6.67;;
7517;SDS011;3800;48.922;9.444;2024-01-30T13:04:56;7.80;;;5.97;;
7517;SDS011;3800;48.922;9.444;2024-01-30T13:07:25;7.50;;;5.60;;
7517;SDS011;3800;48.922;9.444;2024-01-30T13:09:54;5.60;;;5.10;;
7517;SDS011;3800;48.922;9.444;2024-01-30T13:12:22;7.13;;;5.70;;
7517;SDS011;3800;48.922;9.444;2024-01-30T13:14:50;5.20;;;4.70;;
7517;SDS011;3800;48.922;9.444;2024-01-30T13:17:18;6.00;;;4.90;;
7517;SDS011;3800;48.922;9.444;2024-01-30T13:19:47;7.30;;;5.10;;
7517;SDS011;3800;48.922;9.444;2024-01-30T13:22:16;6.70;;;4.87;;
7517;SDS011;3800;48.922;9.444;2024-01-30T13:24:44;8.80;;;6.00;;
7517;SDS011;3800;48.922;9.444;2024-01-30T13:27:12;11.57;;;5.23;;
7517;SDS011;3800;48.922;9.444;2024-01-30T13:29:41;6.03;;;4.97;;
7517;SDS011;3800;48.922;9.444;2024-01-30T13:32:10;8.50;;;5.30;;
7517;SDS011;3800;48.922;9.444;2024-01-30T13:34:39;6.00;;;5.40;;
7517;SDS011;3800;48.922;9.444;2024-01-30T13:37:08;6.43;;;5.17;;
7517;SDS011;3800;48.922;9.444;2024-01-30T13:39:37;6.73;;;4.93;;
7517;SDS011;3800;48.922;9.444;2024-01-30T13:42:05;6.43;;;4.73;;
7517;SDS011;3800;48.922;9.444;2024-01-30T13:44:35;5.97;;;5.03;;
7517;SDS011;3800;48.922;9.444;2024-01-30T13:47:02;7.57;;;5.97;;
7517;SDS011;3800;48.922;9.444;2024-01-30T13:49:30;20.37;;;11.13;;
7517;SDS011;3800;48.922;9.444;2024-01-30T13:51:58;45.17;;;29.37;;
7517;SDS011;3800;48.922;9.444;2024-01-30T13:54:28;53.53;;;34.07;;
7517;SDS011;3800;48.922;9.444;2024-01-30T13:56:56;39.70;;;26.17;;
7517;SDS011;3800;48.922;9.444;2024-01-30T13:59:24;67.73;;;40.13;;
7517;SDS011;3800;48.922;9.444;2024-01-30T14:01:53;67.70;;;39.60;;
7517;SDS011;3800;48.922;9.444;2024-01-30T14:04:21;49.93;;;29.67;;
7517;SDS011;3800;48.922;9.444;2024-01-30T14:06:49;30.73;;;20.60;;
7517;SDS011;3800;48.922;9.444;2024-01-30T14:09:18;21.73;;;14.83;;
7517;SDS011;3800;48.922;9.444;2024-01-30T14:11:47;13.63;;;9.33;;
7517;SDS011;3800;48.922;9.444;2024-01-30T14:14:16;11.30;;;7.50;;
7517;SDS011;3800;48.922;9.444;2024-01-30T14:16:46;9.27;;;5.80;;
7517;SDS011;3800;48.922;9.444;2024-01-30T14:19:14;8.53;;;5.10;;
7517;SDS011;3800;48.922;9.444;2024-01-30T14:21:43;10.17;;;5.20;;
7517;SDS011;3800;48.922;9.444;2024-01-30T14:24:11;5.60;;;5.00;;
7517;SDS011;3800;48.922;9.444;2024-01-30T14:26:40;6.73;;;5.07;;
7517;SDS011;3800;48.922;9.444;2024-01-30T14:29:08;8.47;;;4.97;;
7517;SDS011;3800;48.922;9.444;2024-01-30T14:31:36;14.33;;;5.37;;
7517;SDS011;3800;48.922;9.444;2024-01-30T14:34:05;11.00;;;5.17;;
7517;SDS011;3800;48.922;9.444;2024-01-30T14:36:34;11.23;;;5.50;;
7517;SDS011;3800;48.922;9.444;2024-01-30T14:39:02;9.23;;;5.40;;
7517;SDS011;3800;48.922;9.444;2024-01-30T14:41:30;6.40;;;5.03;;
7517;SDS011;3800;48.922;9.444;2024-01-30T14:43:59;11.30;;;5.03;;
7517;SDS011;3800;48.922;9.444;2024-01-30T14:46:28;7.27;;;5.17;;
7517;SDS011;3800;48.922;9.444;2024-01-30T14:48:56;6.43;;;5.63;;
7517;SDS011;3800;48.922;9.444;2024-01-30T14:51:24;6.53;;;4.80;;
7517;SDS011;3800;48.922;9.444;2024-01-30T14:53:52;6.23;;;5.17;;
7517;SDS011;3800;48.922;9.444;2024-01-30T14:56:21;7.57;;;4.80;;
7517;SDS011;3800;48.922;9.444;2024-01-30T14:58:49;10.53;;;5.87;;
7517;SDS011;3800;48.922;9.444;2024-01-30T15:01:17;10.70;;;5.67;;
7517;SDS011;3800;48.922;9.444;2024-01-30T15:03:46;9.90;;;5.20;;
7517;SDS011;3800;48.922;9.444;2024-01-30T15:06:15;10.30;;;5.80;;
7517;SDS011;3800;48.922;9.444;2024-01-30T15:08:43;13.30;;;6.13;;
7517;SDS011;3800;48.922;9.444;2024-01-30T15:11:11;10.10;;;6.07;;
7517;SDS011;3800;48.922;9.444;2024-01-30T15:13:39;8.97;;;5.70;;
7517;SDS011;3800;48.922;9.444;2024-01-30T15:16:08;10.27;;;5.67;;